Time;durP1;ratioP1;P1;durP2;ratioP2;P2;SDS_P1;SDS_P2;PMS_P1;PMS_P2;Temp;Humidity;BMP_temperature;BMP_pressure;BME280_temperature;BME280_humidity;BME280_pressure;Samples;Min_cycle;Max_cycle;Signal;HPM_P1;HPM_P2
2022/05/02 00:00:07;;;;;;;2.95;1.50;;;7.00;99.50;;;;;;5064316;28;20119;-73
2022/05/02 00:02:33;;;;;;;2.58;1.58;;;7.00;99.90;;;;;;5066010;28;20041;-73
2022/05/02 00:04:59;;;;;;;3.28;1.73;;;7.00;99.70;;;;;;5068119;28;20063;-73
2022/05/02 00:07:24;;;;;;;2.63;1.40;;;7.00;99.90;;;;;;5068117;28;20079;-73
2022/05/02 00:09:50;;;;;;;4.07;2.00;;;7.00;99.90;;;;;;5064851;28;20036;-72
2022/05/02 00:12:16;;;;;;;3.63;1.33;;;6.90;99.80;;;;;;5066774;28;20040;-72
2022/05/02 00:14:41;;;;;;;2.20;1.40;;;6.90;99.90;;;;;;5063807;28;20087;-73
2022/05/02 00:17:07;;;;;;;4.45;1.42;;;6.90;99.90;;;;;;5067618;28;20081;-73
2022/05/02 00:19:33;;;;;;;3.65;2.05;;;6.90;99.90;;;;;;5063940;28;20071;-73
2022/05/02 00:21:58;;;;;;;2.88;1.35;;;6.90;99.90;;;;;;5066640;28;20647;-72
2022/05/02 00:24:24;;;;;;;5.03;2.25;;;6.80;99.90;;;;;;5065386;28;20445;-73
2022/05/02 00:26:49;;;;;;;3.42;1.80;;;6.80;99.90;;;;;;5066203;28;20044;-73
2022/05/02 00:29:15;;;;;;;4.97;1.92;;;6.80;99.90;;;;;;5049873;28;20036;-72
2022/05/02 00:31:40;;;;;;;4.00;1.77;;;6.80;99.90;;;;;;5066809;28;20044;-73
2022/05/02 00:34:06;;;;;;;3.33;1.85;;;6.80;99.90;;;;;;5058587;28;20591;-73
2022/05/02 00:36:32;;;;;;;2.90;1.55;;;6.80;99.90;;;;;;5034058;28;20033;-73
2022/05/02 00:38:57;;;;;;;3.50;1.60;;;6.70;99.90;;;;;;5064513;28;21289;-73
2022/05/02 00:41:23;;;;;;;3.45;1.98;;;6.70;99.90;;;;;;5050720;28;20406;-73
2022/05/02 00:43:49;;;;;;;4.35;2.13;;;6.70;99.90;;;;;;5064698;28;20509;-72
2022/05/02 00:46:25;;;;;;;3.30;1.70;;;6.60;99.90;;;;;;5066538;28;20040;-73
2022/05/02 00:48:52;;;;;;;2.45;1.40;;;6.60;99.90;;;;;;5047109;28;20048;-73
2022/05/02 00:51:19;;;;;;;3.70;2.17;;;6.50;99.90;;;;;;5050429;28;20036;-73
2022/05/02 00:53:49;;;;;;;3.92;2.38;;;6.50;99.90;;;;;;5065264;28;20036;-73
2022/05/02 00:56:20;;;;;;;2.47;1.20;;;6.50;99.90;;;;;;5065823;28;20089;-73
2022/05/02 00:58:48;;;;;;;3.20;1.52;;;6.50;99.90;;;;;;5040540;28;20062;-72
2022/05/02 01:01:14;;;;;;;3.08;1.50;;;6.50;99.90;;;;;;5050203;28;20071;-73
2022/05/02 01:03:39;;;;;;;2.80;1.60;;;6.50;99.90;;;;;;5066797;28;20068;-73
2022/05/02 01:08:52;;;;;;;3.22;1.20;;;6.50;99.90;;;;;;5066365;28;20045;-73
2022/05/02 01:11:17;;;;;;;9.45;1.80;;;6.40;99.90;;;;;;5050273;28;20044;-73
2022/05/02 01:13:45;;;;;;;4.35;1.90;;;6.40;99.90;;;;;;5063912;28;20067;-73
2022/05/02 01:16:20;;;;;;;3.53;1.98;;;6.40;99.90;;;;;;5066601;28;20033;-73
2022/05/02 01:18:48;;;;;;;4.43;2.30;;;6.30;99.90;;;;;;5066522;28;20033;-73
2022/05/02 01:21:31;;;;;;;2.80;1.63;;;6.30;99.90;;;;;;5065871;28;20302;-72
2022/05/02 01:24:02;;;;;;;3.80;2.05;;;6.30;99.90;;;;;;5062392;28;20048;-73
2022/05/02 01:26:28;;;;;;;6.18;2.35;;;6.30;99.90;;;;;;5066246;28;20047;-73
2022/05/02 01:28:56;;;;;;;4.03;2.05;;;6.30;99.90;;;;;;5065191;28;20044;-72
2022/05/02 01:31:22;;;;;;;6.47;2.00;;;6.20;99.90;;;;;;5050283;28;20040;-72
2022/05/02 01:33:49;;;;;;;2.55;1.58;;;6.20;99.90;;;;;;5065889;28;20047;-73
2022/05/02 01:36:16;;;;;;;3.55;1.60;;;6.10;99.90;;;;;;5050007;28;20036;-73
2022/05/02 01:38:42;;;;;;;2.50;1.50;;;6.10;99.90;;;;;;5065461;28;20059;-72
2022/05/02 01:41:09;;;;;;;3.70;2.00;;;6.10;99.90;;;;;;5066071;28;20048;-73
2022/05/02 01:43:36;;;;;;;5.50;1.73;;;6.10;99.90;;;;;;5064453;28;20040;-73
2022/05/02 01:46:04;;;;;;;3.30;2.15;;;6.00;99.90;;;;;;5047917;28;20036;-73
2022/05/02 01:48:30;;;;;;;5.00;2.20;;;6.00;99.90;;;;;;5066478;28;20040;-73
2022/05/02 01:50:57;;;;;;;4.07;2.42;;;6.00;99.90;;;;;;5048222;28;20075;-73
2022/05/02 01:53:23;;;;;;;3.33;1.90;;;6.00;99.90;;;;;;5048746;28;20040;-72
2022/05/02 01:55:49;;;;;;;3.67;1.80;;;6.00;99.90;;;;;;5065459;28;20036;-72
2022/05/02 01:58:15;;;;;;;3.10;1.80;;;6.00;99.90;;;;;;5061241;28;20095;-73
2022/05/02 02:00:40;;;;;;;3.92;2.17;;;6.00;99.90;;;;;;5063921;28;20032;-73
2022/05/02 02:03:06;;;;;;;2.92;1.58;;;5.90;99.90;;;;;;5063340;28;20056;-73
2022/05/02 02:05:50;;;;;;;2.78;1.63;;;5.90;99.90;;;;;;5067107;28;20178;-72
2022/05/02 02:08:25;;;;;;;3.47;2.03;;;5.90;99.90;;;;;;5063781;28;20561;-73
2022/05/02 02:10:56;;;;;;;3.90;1.93;;;5.90;99.90;;;;;;5041677;28;20852;-73
2022/05/02 02:13:22;;;;;;;3.15;1.38;;;5.90;99.90;;;;;;5056542;28;20322;-73
2022/05/02 02:15:48;;;;;;;4.85;1.77;;;5.80;99.90;;;;;;5065428;28;20032;-73
2022/05/02 02:18:14;;;;;;;2.83;1.33;;;5.80;99.90;;;;;;5064639;28;20037;-73
2022/05/02 02:20:45;;;;;;;1.58;1.00;;;5.70;99.90;;;;;;5066643;28;20043;-73
2022/05/02 02:23:12;;;;;;;2.03;1.02;;;5.70;99.90;;;;;;5041037;28;20052;-73
2022/05/02 02:25:38;;;;;;;3.80;1.90;;;5.70;99.90;;;;;;5064963;28;20032;-73
2022/05/02 02:28:04;;;;;;;3.45;1.67;;;5.60;99.90;;;;;;5059973;28;20599;-73
2022/05/02 02:30:30;;;;;;;2.97;1.42;;;5.60;99.90;;;;;;5066078;28;20074;-73
2022/05/02 02:32:57;;;;;;;3.58;1.80;;;5.60;99.90;;;;;;5064775;28;20048;-73
2022/05/02 02:35:22;;;;;;;3.03;1.90;;;5.60;99.90;;;;;;5066925;28;20045;-73
2022/05/02 02:37:48;;;;;;;2.05;1.13;;;5.60;99.90;;;;;;5064696;28;20041;-73
2022/05/02 02:40:15;;;;;;;2.38;1.48;;;5.50;99.90;;;;;;5067259;28;20047;-73
2022/05/02 02:42:40;;;;;;;3.03;1.95;;;5.50;99.90;;;;;;5067762;28;20177;-73
2022/05/02 02:45:07;;;;;;;3.05;1.85;;;5.50;99.90;;;;;;5069007;28;20123;-73
2022/05/02 02:47:32;;;;;;;4.22;2.13;;;5.40;99.90;;;;;;5067970;28;20045;-73
2022/05/02 02:49:58;;;;;;;2.72;1.85;;;5.50;99.90;;;;;;5070009;28;20071;-73
2022/05/02 02:52:24;;;;;;;2.83;1.75;;;5.40;99.90;;;;;;5068054;28;20032;-73
2022/05/02 02:54:50;;;;;;;3.55;1.92;;;5.50;99.90;;;;;;5052939;28;20040;-73
2022/05/02 02:57:15;;;;;;;4.70;1.95;;;5.40;99.90;;;;;;5067415;28;20032;-73
2022/05/02 02:59:41;;;;;;;3.08;1.40;;;5.40;99.90;;;;;;5068792;28;20040;-73
2022/05/02 03:02:07;;;;;;;2.85;1.52;;;5.30;99.90;;;;;;5069709;28;20549;-73
2022/05/02 03:07:18;;;;;;;3.40;1.77;;;5.30;99.90;;;;;;5067808;28;20127;-73
2022/05/02 03:09:43;;;;;;;3.20;1.75;;;5.30;99.90;;;;;;5052393;28;20149;-73
2022/05/02 03:12:09;;;;;;;4.03;1.60;;;5.20;99.90;;;;;;5068220;28;20072;-73
2022/05/02 03:14:35;;;;;;;2.63;1.70;;;5.20;99.90;;;;;;5048251;28;20067;-73
2022/05/02 03:17:00;;;;;;;3.65;2.25;;;5.20;99.90;;;;;;5069712;28;20041;-73
2022/05/02 03:19:26;;;;;;;4.20;1.42;;;5.20;99.90;;;;;;5040679;28;20040;-73
2022/05/02 03:21:52;;;;;;;3.95;2.00;;;5.10;99.90;;;;;;5033324;28;20411;-73
2022/05/02 03:24:18;;;;;;;3.85;1.77;;;5.00;99.90;;;;;;5065987;28;20044;-73
2022/05/02 03:26:43;;;;;;;4.07;1.95;;;5.10;99.90;;;;;;5068344;28;20047;-73
2022/05/02 03:29:09;;;;;;;3.72;1.90;;;5.00;99.90;;;;;;5065611;28;20545;-73
2022/05/02 03:31:34;;;;;;;2.38;1.60;;;5.00;99.90;;;;;;5050796;28;20417;-73
2022/05/02 03:34:00;;;;;;;3.03;1.58;;;5.00;99.90;;;;;;5050129;28;20048;-73
2022/05/02 03:36:26;;;;;;;3.25;1.60;;;5.00;99.90;;;;;;5052334;28;20040;-73
2022/05/02 03:38:51;;;;;;;4.93;1.60;;;5.00;99.90;;;;;;5067742;28;20063;-73
2022/05/02 03:41:17;;;;;;;4.22;2.13;;;5.00;99.90;;;;;;5068504;28;20033;-73
2022/05/02 03:43:43;;;;;;;3.75;1.83;;;5.10;99.90;;;;;;5067114;28;20393;-73
2022/05/02 03:46:08;;;;;;;5.68;2.55;;;5.00;99.90;;;;;;5041289;28;20624;-73
2022/05/02 03:48:34;;;;;;;3.83;1.98;;;4.90;99.90;;;;;;5066592;28;20032;-73
2022/05/02 03:51:00;;;;;;;6.38;1.83;;;4.90;99.90;;;;;;5068485;28;20044;-73
2022/05/02 03:53:25;;;;;;;3.70;2.08;;;4.90;99.90;;;;;;5064761;28;20127;-73
2022/05/02 03:55:51;;;;;;;3.42;2.08;;;4.90;99.90;;;;;;5049421;28;20044;-73
2022/05/02 03:58:17;;;;;;;5.82;1.98;;;4.80;99.90;;;;;;5049819;28;20654;-73
2022/05/02 04:00:43;;;;;;;4.95;1.77;;;4.90;99.90;;;;;;5050955;28;20037;-73
2022/05/02 04:03:08;;;;;;;5.80;2.17;;;4.80;99.90;;;;;;5066573;28;20041;-73
2022/05/02 04:05:34;;;;;;;3.67;2.17;;;4.80;99.90;;;;;;5067293;28;20050;-73
2022/05/02 04:08:00;;;;;;;5.50;2.42;;;4.80;99.90;;;;;;5066763;28;20067;-73
2022/05/02 04:10:25;;;;;;;4.75;1.95;;;4.80;99.90;;;;;;5034911;28;20063;-73
2022/05/02 04:12:51;;;;;;;7.93;1.70;;;4.80;99.90;;;;;;5067575;28;20127;-73
2022/05/02 04:15:17;;;;;;;4.75;1.73;;;4.80;99.90;;;;;;5047735;28;20044;-73
2022/05/02 04:17:43;;;;;;;3.38;1.88;;;4.90;99.90;;;;;;5050359;28;20032;-73
2022/05/02 04:20:09;;;;;;;1.23;0.90;;;4.90;99.90;;;;;;5066989;28;20067;-73
2022/05/02 04:22:36;;;;;;;6.60;1.80;;;4.80;99.90;;;;;;5049539;28;20409;-73
2022/05/02 04:25:03;;;;;;;4.20;1.85;;;4.70;99.90;;;;;;5033316;28;20119;-73
2022/05/02 04:27:28;;;;;;;2.70;1.83;;;4.70;99.90;;;;;;5047513;28;20045;-73
2022/05/02 04:29:54;;;;;;;3.35;1.65;;;4.70;99.90;;;;;;5066513;28;20128;-73
2022/05/02 04:32:20;;;;;;;3.08;1.70;;;4.80;99.90;;;;;;5065038;28;20138;-73
2022/05/02 04:34:46;;;;;;;3.00;1.33;;;4.70;99.90;;;;;;5067765;28;20048;-73
2022/05/02 04:37:11;;;;;;;2.60;1.50;;;4.70;99.90;;;;;;5065994;28;20129;-73
2022/05/02 04:39:37;;;;;;;3.42;1.98;;;4.70;99.90;;;;;;5066129;28;20084;-73
2022/05/02 04:42:03;;;;;;;3.67;1.67;;;4.70;99.90;;;;;;5049400;28;20549;-73
2022/05/02 04:44:29;;;;;;;3.28;1.77;;;4.60;99.90;;;;;;5066100;28;20127;-73
2022/05/02 04:46:55;;;;;;;4.03;1.83;;;4.70;99.90;;;;;;5067158;28;20103;-73
2022/05/02 04:49:20;;;;;;;4.70;2.33;;;4.70;99.90;;;;;;5050442;28;20040;-73
2022/05/02 04:51:46;;;;;;;5.15;2.20;;;4.80;99.90;;;;;;5059664;28;20032;-73
2022/05/02 04:54:12;;;;;;;4.78;2.22;;;4.90;99.90;;;;;;5065557;28;20048;-73
2022/05/02 04:56:38;;;;;;;6.90;2.83;;;4.90;99.90;;;;;;5066341;28;20101;-73
2022/05/02 04:59:03;;;;;;;3.33;1.73;;;5.00;99.90;;;;;;5063705;28;20086;-73
2022/05/02 05:01:29;;;;;;;5.20;2.35;;;5.00;99.90;;;;;;5055199;28;20037;-73
2022/05/02 05:03:55;;;;;;;2.95;2.10;;;5.00;99.90;;;;;;5066981;28;20041;-73
2022/05/02 05:06:20;;;;;;;4.75;2.58;;;5.00;99.90;;;;;;5067331;28;20036;-73
2022/05/02 05:08:46;;;;;;;4.20;2.20;;;5.00;99.90;;;;;;5049891;28;20089;-73
2022/05/02 05:11:14;;;;;;;3.40;1.75;;;5.00;99.90;;;;;;5049659;28;20044;-73
2022/05/02 05:17:24;;;;;;;6.20;3.05;;;5.00;99.90;;;;;;5068077;28;20398;-73
2022/05/02 05:20:13;;;;;;;4.45;2.38;;;5.00;99.90;;;;;;5052263;28;20082;-73
2022/05/02 05:23:08;;;;;;;5.07;2.65;;;5.00;99.90;;;;;;5082929;28;20044;-73
2022/05/02 05:26:04;;;;;;;5.10;2.28;;;5.10;99.90;;;;;;5048505;28;20040;-73
2022/05/02 05:28:48;;;;;;;3.45;2.42;;;5.10;99.90;;;;;;5065063;28;20064;-73
2022/05/02 05:31:29;;;;;;;4.07;2.67;;;5.10;99.90;;;;;;5066943;28;20048;-73
2022/05/02 05:34:04;;;;;;;5.40;3.42;;;5.30;99.90;;;;;;5066751;28;20059;-73
2022/05/02 05:36:58;;;;;;;9.50;3.20;;;5.80;99.90;;;;;;5059097;28;20494;-73
2022/05/02 05:39:36;;;;;;;8.52;3.78;;;6.90;99.90;;;;;;5064556;28;20615;-73
2022/05/02 05:42:20;;;;;;;5.78;2.53;;;7.80;99.90;;;;;;5048607;28;20135;-73
2022/05/02 05:45:01;;;;;;;6.55;3.20;;;8.00;98.70;;;;;;5063796;28;20829;-73
2022/05/02 05:47:40;;;;;;;7.10;3.08;;;7.80;99.50;;;;;;5064264;28;20692;-73
2022/05/02 05:50:30;;;;;;;11.23;3.70;;;7.50;99.90;;;;;;5067117;28;20037;-73
2022/05/02 05:53:07;;;;;;;8.27;3.60;;;7.30;99.90;;;;;;5065809;28;20519;-73
2022/05/02 05:56:06;;;;;;;4.90;2.92;;;7.20;99.90;;;;;;5048358;28;20128;-73
2022/05/02 05:58:45;;;;;;;6.78;3.25;;;7.10;99.90;;;;;;5055176;28;20041;-73
2022/05/02 06:01:14;;;;;;;7.75;3.50;;;7.00;99.90;;;;;;5064016;28;20106;-73
2022/05/02 06:04:04;;;;;;;7.78;3.92;;;6.90;99.90;;;;;;5046120;28;20058;-73
2022/05/02 06:06:30;;;;;;;6.75;3.35;;;6.80;99.90;;;;;;5063018;28;20035;-73
2022/05/02 06:09:00;;;;;;;6.07;3.40;;;6.80;99.90;;;;;;5046989;28;20127;-73
2022/05/02 06:11:27;;;;;;;6.32;3.67;;;6.80;99.90;;;;;;5046955;28;20032;-72
2022/05/02 06:13:54;;;;;;;8.98;3.60;;;6.80;99.90;;;;;;5059342;28;20487;-73
2022/05/02 06:19:13;;;;;;;13.60;4.03;;;6.90;99.90;;;;;;5055448;28;20037;-73
2022/05/02 06:21:46;;;;;;;9.30;3.80;;;7.00;99.90;;;;;;5047833;28;20090;-73
2022/05/02 06:24:13;;;;;;;6.13;3.17;;;7.60;99.90;;;;;;5060300;28;20040;-73
2022/05/02 06:26:40;;;;;;;7.10;4.18;;;8.80;99.90;;;;;;5053437;28;20044;-73
2022/05/02 06:29:11;;;;;;;10.00;4.72;;;10.00;99.90;;;;;;5067124;28;20500;-74
2022/05/02 06:31:40;;;;;;;5.93;3.47;;;11.00;97.50;;;;;;5048276;28;20039;-74
2022/05/02 06:34:06;;;;;;;8.57;3.40;;;11.20;95.50;;;;;;5067954;28;20041;-74
2022/05/02 06:37:00;;;;;;;7.78;3.85;;;10.90;96.40;;;;;;5069434;28;20044;-73
2022/05/02 06:39:47;;;;;;;5.68;3.25;;;10.50;97.90;;;;;;5063836;28;20053;-74
2022/05/02 06:42:55;;;;;;;6.05;3.38;;;10.20;99.90;;;;;;5067536;28;20492;-73
2022/05/02 06:45:36;;;;;;;7.50;3.78;;;9.90;99.90;;;;;;5047237;28;20044;-74
2022/05/02 06:48:28;;;;;;;6.20;3.42;;;9.60;99.90;;;;;;5051821;28;20040;-74
2022/05/02 06:51:06;;;;;;;6.90;3.65;;;9.50;99.90;;;;;;5065982;28;20029;-74
2022/05/02 06:53:37;;;;;;;5.88;3.38;;;9.40;99.90;;;;;;5045531;28;20463;-74
2022/05/02 06:56:44;;;;;;;5.13;3.03;;;9.40;99.90;;;;;;5044834;28;20066;-74
2022/05/02 06:59:48;;;;;;;7.10;3.53;;;9.40;99.90;;;;;;5066017;28;20036;-74
2022/05/02 07:02:27;;;;;;;6.07;3.45;;;9.30;99.90;;;;;;5059926;28;20486;-73
2022/05/02 07:04:54;;;;;;;6.80;3.55;;;9.30;99.90;;;;;;5049410;28;20044;-74
2022/05/02 07:07:39;;;;;;;7.50;3.22;;;9.30;99.90;;;;;;5050937;28;20142;-73
2022/05/02 07:10:13;;;;;;;6.93;3.42;;;9.30;99.90;;;;;;5041340;28;20033;-73
2022/05/02 07:12:49;;;;;;;8.82;3.33;;;9.30;99.90;;;;;;5061733;28;20048;-73
2022/05/02 07:15:37;;;;;;;6.50;3.25;;;9.30;99.90;;;;;;5064775;28;20103;-73
2022/05/02 07:18:30;;;;;;;5.10;2.75;;;9.30;99.90;;;;;;5047566;28;20037;-75
2022/05/02 07:21:34;;;;;;;7.65;3.90;;;9.30;99.90;;;;;;5027140;28;20056;-73
2022/05/02 07:24:14;;;;;;;6.65;2.72;;;9.40;99.90;;;;;;5063929;28;20140;-73
2022/05/02 07:26:41;;;;;;;5.93;3.30;;;9.40;99.90;;;;;;5063483;28;20040;-73
2022/05/02 07:29:09;;;;;;;5.25;2.90;;;9.50;99.90;;;;;;5049073;28;20637;-72
2022/05/02 07:31:35;;;;;;;3.72;2.40;;;9.50;99.90;;;;;;5056592;28;20040;-73
2022/05/02 07:34:02;;;;;;;10.23;3.13;;;9.50;99.90;;;;;;5046219;28;20028;-73
2022/05/02 07:36:31;;;;;;;6.45;2.78;;;9.60;99.90;;;;;;5043722;28;20044;-73
2022/05/02 07:39:05;;;;;;;10.93;3.22;;;9.60;99.90;;;;;;5067339;28;20054;-73
2022/05/02 07:41:32;;;;;;;7.78;3.42;;;9.60;99.90;;;;;;5040250;28;20059;-73
2022/05/02 07:44:10;;;;;;;6.28;2.80;;;9.70;99.90;;;;;;5062818;28;20410;-73
2022/05/02 07:46:44;;;;;;;5.38;2.92;;;9.80;99.90;;;;;;5065045;28;20036;-73
2022/05/02 07:49:14;;;;;;;5.35;2.92;;;9.80;99.90;;;;;;5065762;28;20040;-73
2022/05/02 07:51:50;;;;;;;5.68;2.60;;;9.80;99.90;;;;;;5063414;28;20044;-73
2022/05/02 07:54:20;;;;;;;5.97;2.97;;;9.90;99.90;;;;;;5067122;28;20071;-73
2022/05/02 07:56:47;;;;;;;4.05;2.83;;;10.00;99.90;;;;;;5065775;28;20044;-73
2022/05/02 07:59:15;;;;;;;6.68;3.70;;;10.00;99.90;;;;;;5062698;28;20043;-73
2022/05/02 08:01:41;;;;;;;5.90;2.95;;;10.00;99.90;;;;;;5042417;28;20508;-73
2022/05/02 08:04:12;;;;;;;4.70;2.42;;;9.90;99.90;;;;;;5045432;28;21430;-73
2022/05/02 08:07:09;;;;;;;5.22;2.95;;;10.00;99.90;;;;;;5047556;28;20052;-73
2022/05/02 08:09:53;;;;;;;4.65;2.58;;;10.10;99.90;;;;;;5061186;28;20047;-73
2022/05/02 08:12:43;;;;;;;5.30;2.78;;;10.10;99.90;;;;;;5063614;28;20395;-73
2022/05/02 08:15:22;;;;;;;4.80;2.60;;;10.20;99.90;;;;;;5058026;28;20127;-73
2022/05/02 08:18:11;;;;;;;4.32;2.25;;;10.30;99.90;;;;;;5057430;28;20029;-73
2022/05/02 08:20:48;;;;;;;4.13;1.75;;;10.40;99.40;;;;;;5037191;28;20513;-73
2022/05/02 08:27:22;;;;;;;3.22;2.20;;;10.50;98.80;;;;;;5063800;28;20040;-73
2022/05/02 08:30:01;;;;;;;6.40;2.67;;;10.50;98.70;;;;;;5048359;28;20041;-73
2022/05/02 08:32:43;;;;;;;7.13;2.28;;;10.50;98.90;;;;;;5075356;28;20055;-73
2022/05/02 08:35:31;;;;;;;5.90;2.85;;;10.60;98.40;;;;;;5062390;28;20157;-73
2022/05/02 08:38:07;;;;;;;3.45;2.05;;;10.70;97.70;;;;;;5063820;28;20045;-73
2022/05/02 08:41:06;;;;;;;5.13;2.53;;;10.80;97.20;;;;;;5041523;28;20056;-73
2022/05/02 08:43:50;;;;;;;4.68;2.38;;;10.80;95.00;;;;;;5064666;28;20086;-73
2022/05/02 08:46:43;;;;;;;4.85;2.78;;;10.80;96.30;;;;;;5076836;28;20312;-73
2022/05/02 08:49:46;;;;;;;4.75;2.40;;;10.90;96.20;;;;;;5057939;28;20051;-73
2022/05/02 08:52:38;;;;;;;5.88;2.85;;;11.00;95.30;;;;;;5064714;28;20037;-73
2022/05/02 08:55:12;;;;;;;4.63;2.60;;;11.10;95.20;;;;;;5060941;28;20124;-73
2022/05/02 08:58:21;;;;;;;4.88;1.98;;;11.10;95.30;;;;;;5068417;28;20418;-73
2022/05/02 09:01:05;;;;;;;3.78;1.98;;;11.10;93.40;;;;;;5061243;28;20414;-73
2022/05/02 09:04:01;;;;;;;4.55;2.17;;;11.10;94.10;;;;;;5064332;28;20131;-73
2022/05/02 09:06:52;;;;;;;5.13;2.38;;;11.00;92.00;;;;;;5063787;28;20124;-72
2022/05/02 09:09:42;;;;;;;4.45;2.38;;;11.00;93.00;;;;;;5047746;28;20063;-70
2022/05/02 09:12:10;;;;;;;3.72;2.22;;;11.00;93.70;;;;;;5063441;28;20040;-71
2022/05/02 09:15:07;;;;;;;4.72;2.40;;;11.00;94.10;;;;;;5062260;28;20048;-74
2022/05/02 09:18:05;;;;;;;4.30;1.98;;;10.90;93.60;;;;;;5045913;28;20037;-73
2022/05/02 09:21:09;;;;;;;5.47;2.35;;;10.90;93.70;;;;;;5061621;28;20048;-73
2022/05/02 09:24:04;;;;;;;6.32;2.40;;;10.90;92.80;;;;;;5044561;28;20056;-73
2022/05/02 09:27:08;;;;;;;4.63;2.60;;;11.00;93.00;;;;;;5061351;28;20051;-73
2022/05/02 09:29:58;;;;;;;2.95;1.95;;;11.20;92.40;;;;;;5059018;28;20089;-73
2022/05/02 09:32:57;;;;;;;4.72;2.20;;;11.20;92.70;;;;;;5062488;28;20047;-73
2022/05/02 09:35:31;;;;;;;4.43;2.00;;;11.20;93.10;;;;;;5043425;28;20076;-74
2022/05/02 09:37:59;;;;;;;4.22;2.30;;;11.30;93.60;;;;;;5045834;28;20063;-73
2022/05/02 09:40:35;;;;;;;3.83;1.98;;;11.30;93.80;;;;;;5058990;28;20048;-73
2022/05/02 09:50:14;;;;;;;4.43;2.42;;;11.60;93.00;;;;;;5056011;28;20041;-73
2022/05/02 09:52:58;;;;;;;4.00;2.22;;;11.80;93.10;;;;;;5040320;28;20049;-73
2022/05/02 09:58:36;;;;;;;4.68;2.50;;;11.90;92.60;;;;;;5061961;28;20123;-73
2022/05/02 10:01:26;;;;;;;5.03;2.40;;;11.90;93.00;;;;;;5057912;28;20254;-73
2022/05/02 10:04:21;;;;;;;4.47;2.53;;;12.00;92.50;;;;;;5047432;28;20052;-73
2022/05/02 10:06:52;;;;;;;2.55;1.77;;;12.10;92.30;;;;;;5065086;28;20413;-73
2022/05/02 10:09:33;;;;;;;3.08;1.85;;;12.10;92.80;;;;;;5064516;28;20091;-73
2022/05/02 10:12:20;;;;;;;4.40;2.35;;;12.20;91.30;;;;;;5060071;28;20521;-72
2022/05/02 10:15:08;;;;;;;3.63;1.80;;;12.40;91.90;;;;;;5031973;28;20049;-73
2022/05/02 10:18:00;;;;;;;2.60;1.52;;;12.50;92.10;;;;;;5061579;28;20165;-73
2022/05/02 10:20:50;;;;;;;3.30;1.50;;;12.50;91.80;;;;;;5053418;28;20077;-72
2022/05/02 10:23:49;;;;;;;6.30;1.95;;;12.70;92.10;;;;;;5058077;28;20040;-72
2022/05/02 10:26:31;;;;;;;4.13;1.70;;;12.90;91.20;;;;;;5047672;28;20068;-72
2022/05/02 10:29:15;;;;;;;3.97;1.95;;;13.00;90.40;;;;;;5056183;28;20048;-73
2022/05/02 10:31:47;;;;;;;3.28;1.90;;;13.00;91.30;;;;;;5060574;28;20044;-72
2022/05/02 10:34:17;;;;;;;3.45;1.90;;;13.00;90.80;;;;;;5062862;28;22379;-73
2022/05/02 10:36:47;;;;;;;4.00;2.03;;;13.00;90.50;;;;;;5059837;28;20581;-73
2022/05/02 10:39:45;;;;;;;3.42;1.90;;;13.00;90.10;;;;;;5060582;28;20124;-73
2022/05/02 10:42:13;;;;;;;3.63;1.95;;;13.00;88.00;;;;;;5061775;28;20124;-72
2022/05/02 10:45:10;;;;;;;3.63;1.90;;;13.00;89.00;;;;;;5039295;28;20127;-73
2022/05/02 10:47:59;;;;;;;2.53;1.63;;;13.00;84.40;;;;;;5061179;28;20098;-73
2022/05/02 10:50:31;;;;;;;3.22;1.75;;;13.00;83.50;;;;;;5059592;28;20451;-73
2022/05/02 10:53:02;;;;;;;4.28;1.90;;;13.00;87.80;;;;;;5059860;28;20367;-73
2022/05/02 10:55:33;;;;;;;4.38;1.85;;;12.90;84.90;;;;;;5043384;28;20090;-73
2022/05/02 10:58:04;;;;;;;3.25;2.00;;;12.90;84.90;;;;;;5044328;28;20042;-73
2022/05/02 11:00:31;;;;;;;3.42;2.03;;;12.90;81.50;;;;;;5058709;28;20028;-72
2022/05/02 11:03:18;;;;;;;3.22;1.70;;;13.00;85.50;;;;;;5058069;28;20073;-72
2022/05/02 11:06:21;;;;;;;3.00;1.65;;;12.90;83.10;;;;;;5044476;28;20045;-72
2022/05/02 11:08:53;;;;;;;3.13;1.83;;;13.00;86.70;;;;;;5050628;28;20036;-73
2022/05/02 11:11:27;;;;;;;4.68;1.73;;;13.20;85.60;;;;;;5045000;28;20047;-73
2022/05/02 11:14:20;;;;;;;3.90;1.90;;;13.30;82.40;;;;;;5048091;28;20056;-73
2022/05/02 11:16:54;;;;;;;2.92;1.73;;;13.20;80.60;;;;;;5041934;28;20036;-73
2022/05/02 11:22:23;;;;;;;4.05;1.85;;;13.20;83.10;;;;;;5059356;28;20036;-72
2022/05/02 11:25:10;;;;;;;3.65;1.92;;;13.20;84.50;;;;;;5038644;28;20044;-72
2022/05/02 11:28:02;;;;;;;3.03;1.67;;;13.20;82.10;;;;;;5061913;28;20450;-73
2022/05/02 11:30:28;;;;;;;6.38;1.83;;;13.20;81.50;;;;;;5058560;28;20123;-73
2022/05/02 11:33:04;;;;;;;3.35;1.88;;;13.20;81.90;;;;;;5058008;28;20044;-72
2022/05/02 11:35:32;;;;;;;4.72;1.48;;;13.30;81.10;;;;;;5066705;28;20391;-72
2022/05/02 11:38:19;;;;;;;3.75;1.73;;;13.40;79.20;;;;;;5066976;28;20052;-73
2022/05/02 11:40:53;;;;;;;3.10;1.50;;;13.40;75.70;;;;;;5051071;28;20044;-73
2022/05/02 11:43:22;;;;;;;2.42;1.40;;;13.40;78.80;;;;;;5067710;28;20048;-72
2022/05/02 11:45:55;;;;;;;3.38;1.98;;;13.40;80.90;;;;;;5066819;28;20074;-73
2022/05/02 11:48:21;;;;;;;3.88;2.08;;;13.50;81.30;;;;;;5051081;28;20115;-73
2022/05/02 11:50:48;;;;;;;3.75;1.90;;;13.50;78.80;;;;;;5067984;28;20510;-73
2022/05/02 11:53:16;;;;;;;3.20;1.80;;;13.60;78.20;;;;;;5068386;28;20087;-73
2022/05/02 11:55:44;;;;;;;3.58;1.90;;;13.70;77.40;;;;;;5052210;28;20134;-73
2022/05/02 11:58:25;;;;;;;6.18;2.03;;;13.70;76.10;;;;;;5067152;28;20036;-72
2022/05/02 12:01:02;;;;;;;5.38;1.73;;;13.70;74.10;;;;;;5051653;28;20036;-73
2022/05/02 12:03:42;;;;;;;3.40;1.75;;;13.80;75.80;;;;;;5060245;28;20062;-73
2022/05/02 12:06:09;;;;;;;3.33;1.83;;;13.80;73.20;;;;;;5068834;28;20040;-72
2022/05/02 12:08:36;;;;;;;2.80;1.48;;;13.80;76.90;;;;;;5068844;28;20040;-73
2022/05/02 12:11:06;;;;;;;4.07;2.10;;;13.80;74.80;;;;;;5068743;28;20074;-73
2022/05/02 12:13:37;;;;;;;2.50;1.27;;;13.80;72.30;;;;;;5065878;28;20296;-73
2022/05/02 12:16:04;;;;;;;3.92;1.73;;;13.80;71.20;;;;;;5069100;28;20464;-73
2022/05/02 12:18:42;;;;;;;3.25;1.70;;;13.80;72.60;;;;;;5067918;28;20394;-72
2022/05/02 12:21:21;;;;;;;3.75;1.90;;;13.90;69.60;;;;;;5051617;28;20070;-72
2022/05/02 12:23:48;;;;;;;4.53;1.80;;;13.90;72.20;;;;;;5062264;28;20456;-73
2022/05/02 12:26:19;;;;;;;3.20;2.03;;;14.00;72.50;;;;;;5068796;28;20543;-73
2022/05/02 12:28:51;;;;;;;3.67;1.63;;;13.90;72.30;;;;;;5068781;28;20041;-73
2022/05/02 12:31:28;;;;;;;2.63;1.42;;;14.00;71.30;;;;;;5068228;28;20043;-73
2022/05/02 12:34:01;;;;;;;2.75;1.75;;;14.00;68.90;;;;;;5061241;28;20044;-72
2022/05/02 12:36:48;;;;;;;2.60;1.75;;;14.00;69.30;;;;;;5068486;28;20115;-72
2022/05/02 12:39:35;;;;;;;2.85;1.50;;;14.10;67.70;;;;;;5067947;28;20047;-73
2022/05/02 12:42:17;;;;;;;;;;;14.20;64.70;;;;;;5068329;28;20040;-73
2022/05/02 12:44:57;;;;;;;2.70;1.40;;;14.20;60.90;;;;;;5066861;28;19989;-73
2022/05/02 12:47:25;;;;;;;3.30;1.48;;;14.20;66.40;;;;;;5067549;28;20083;-72
2022/05/02 12:50:16;;;;;;;3.72;1.15;;;14.30;69.20;;;;;;5050369;28;20501;-72
2022/05/02 12:52:51;;;;;;;3.85;1.58;;;14.20;64.70;;;;;;5067068;28;20044;-73
2022/05/02 12:55:19;;;;;;;2.03;1.10;;;14.20;68.70;;;;;;5067512;28;20533;-73
2022/05/02 13:00:44;;;;;;;2.80;1.40;;;14.20;68.70;;;;;;5067546;28;20055;-73
2022/05/02 13:03:10;;;;;;;2.80;1.48;;;14.30;66.80;;;;;;5048283;28;20036;-73
2022/05/02 13:05:39;;;;;;;2.50;1.35;;;14.40;68.10;;;;;;5068727;28;20039;-73
2022/05/02 13:08:09;;;;;;;4.60;1.50;;;14.40;67.90;;;;;;5050565;28;20538;-72
2022/05/02 13:10:36;;;;;;;3.78;1.67;;;14.40;67.30;;;;;;5066186;28;20033;-73
2022/05/02 13:13:08;;;;;;;4.15;1.90;;;14.40;67.40;;;;;;5067173;28;20064;-73
2022/05/02 13:15:36;;;;;;;4.00;1.85;;;14.40;67.50;;;;;;5066885;28;20498;-73
2022/05/02 13:18:05;;;;;;;2.42;1.45;;;14.40;66.60;;;;;;5067380;28;20292;-73
2022/05/02 13:20:32;;;;;;;4.07;2.10;;;14.40;67.90;;;;;;5049695;28;20508;-72
2022/05/02 13:23:02;;;;;;;3.40;1.75;;;14.40;67.90;;;;;;5067368;28;20045;-73
2022/05/02 13:25:53;;;;;;;2.65;1.35;;;14.50;66.80;;;;;;5049396;28;20036;-73
2022/05/02 13:28:33;;;;;;;3.53;1.75;;;14.60;65.60;;;;;;5064767;28;20032;-72
2022/05/02 13:31:17;;;;;;;3.55;1.80;;;14.60;66.90;;;;;;5066385;28;20135;-72
2022/05/02 13:33:51;;;;;;;2.60;1.40;;;14.70;65.70;;;;;;5064203;28;20044;-72
2022/05/02 13:36:17;;;;;;;3.22;1.58;;;14.70;66.70;;;;;;5066583;28;20479;-72
2022/05/02 13:39:05;;;;;;;3.55;1.70;;;14.70;67.40;;;;;;5066563;28;20490;-71
2022/05/02 13:41:41;;;;;;;3.13;1.50;;;14.70;64.70;;;;;;5066939;28;20044;-71
2022/05/02 13:44:40;;;;;;;2.80;1.50;;;14.70;67.20;;;;;;5063772;28;20508;-72
2022/05/02 13:47:11;;;;;;;4.35;1.88;;;14.70;62.00;;;;;;5044360;28;20048;-72
2022/05/02 13:50:06;;;;;;;4.78;2.28;;;14.80;65.00;;;;;;5066289;28;20380;-73
2022/05/02 13:52:59;;;;;;;4.80;2.25;;;14.80;62.80;;;;;;5066924;28;20155;-72
2022/05/02 13:55:48;;;;;;;3.17;1.70;;;14.90;63.70;;;;;;5067003;28;20131;-72
2022/05/02 13:58:50;;;;;;;3.17;1.95;;;14.90;62.40;;;;;;5065974;28;20048;-72
2022/05/02 14:01:43;;;;;;;3.05;1.35;;;14.80;62.80;;;;;;5045509;28;20070;-72